Řízení letového provozu České republiky
Letiste: LKMT Aktualizace: 24.03.2019 22:01:06  UTC
 METAR LKMT 24.03. 22:00 ...
METAR LKMT 242200Z 03003KT 340V060 9999 OVC039 08/03 Q1017 NOSIG RMK REG QNH 1015=
 TAF LKMT 24.03. 17:00 ...
TAF LKMT 241700Z 2418/2600 02008KT CAVOK      BECMG 2418/2421 BKN023      TEMPO 2421/2507 VRB02KT 3500 -RA BKN014      BECMG 2507/2510 25010KT CAVOK      TEMPO 2511/2516 27016G32KT      BECMG 2516/2518 33005KT      TEMPO 2518/2600 3000 -SNRA BKN016=